Time;durP1;ratioP1;P1;durP2;ratioP2;P2;SDS_P1;SDS_P2;PMS_P1;PMS_P2;Temp;Humidity;BMP_temperature;BMP_pressure;BME280_temperature;BME280_humidity;BME280_pressure;Samples;Min_cycle;Max_cycle;Signal;HPM_P1;HPM_P2
2024/01/16 00:00:24;;;;;;;1.50;1.40;;;;;;;;;;1041879;28;20634;-66
2024/01/16 00:01:16;;;;;;;1.55;1.30;;;;;;;;;;1041878;28;20425;-65
2024/01/16 00:01:49;;;;;;;1.70;1.30;;;;;;;;;;1042145;28;20792;-65
2024/01/16 00:02:20;;;;;;;1.90;1.00;;;;;;;;;;1042091;28;20428;-65
2024/01/16 00:02:51;;;;;;;2.80;1.48;;;;;;;;;;1042265;28;20079;-65
2024/01/16 00:03:21;;;;;;;1.20;1.10;;;;;;;;;;1042131;28;20036;-65
2024/01/16 00:03:52;;;;;;;4.80;1.40;;;;;;;;;;1042248;28;20087;-65
2024/01/16 00:04:23;;;;;;;2.40;1.30;;;;;;;;;;1042571;28;20137;-65
2024/01/16 00:04:53;;;;;;;2.47;1.52;;;;;;;;;;1041607;28;20056;-65
2024/01/16 00:05:24;;;;;;;1.17;1.08;;;;;;;;;;1042890;28;20044;-65
2024/01/16 00:05:54;;;;;;;4.28;1.30;;;;;;;;;;1041673;28;20055;-65
2024/01/16 00:06:25;;;;;;;2.55;1.33;;;;;;;;;;1042517;28;20045;-65
2024/01/16 00:06:55;;;;;;;1.00;1.00;;;;;;;;;;1041513;28;20052;-65
2024/01/16 00:07:26;;;;;;;1.85;1.35;;;;;;;;;;1042523;28;20083;-65
2024/01/16 00:07:59;;;;;;;1.25;1.17;;;;;;;;;;1042158;28;20413;-66
2024/01/16 00:08:30;;;;;;;2.33;1.25;;;;;;;;;;1042342;28;20080;-66
2024/01/16 00:09:00;;;;;;;3.35;1.80;;;;;;;;;;1042173;28;20107;-65
2024/01/16 00:09:34;;;;;;;2.08;1.52;;;;;;;;;;1041851;28;20771;-65
2024/01/16 00:10:06;;;;;;;1.00;1.00;;;;;;;;;;1042677;28;20523;-65
2024/01/16 00:10:37;;;;;;;1.30;1.20;;;;;;;;;;1041630;28;20068;-65
2024/01/16 00:11:08;;;;;;;1.98;1.50;;;;;;;;;;1042453;28;20053;-65
2024/01/16 00:11:42;;;;;;;2.38;1.42;;;;;;;;;;1041986;28;20129;-65
2024/01/16 00:12:12;;;;;;;2.08;1.60;;;;;;;;;;1042301;28;20049;-65
2024/01/16 00:12:43;;;;;;;2.22;1.65;;;;;;;;;;1041509;28;20055;-64
2024/01/16 00:13:13;;;;;;;2.33;1.27;;;;;;;;;;1042598;28;20060;-65
2024/01/16 00:13:44;;;;;;;4.78;1.50;;;;;;;;;;1041697;28;20536;-65
2024/01/16 00:14:14;;;;;;;1.38;1.27;;;;;;;;;;1042899;28;20048;-65
2024/01/16 00:14:45;;;;;;;2.10;1.65;;;;;;;;;;1041482;28;20895;-65
2024/01/16 00:15:15;;;;;;;2.53;1.33;;;;;;;;;;1042720;28;20044;-64
2024/01/16 00:15:46;;;;;;;1.42;1.25;;;;;;;;;;1041786;28;20544;-65
2024/01/16 00:16:16;;;;;;;2.42;1.30;;;;;;;;;;1042199;28;20056;-65
2024/01/16 00:16:47;;;;;;;1.48;1.38;;;;;;;;;;1042131;28;20068;-65
2024/01/16 00:17:18;;;;;;;1.40;1.30;;;;;;;;;;1041951;28;20107;-65
2024/01/16 00:17:49;;;;;;;1.83;1.55;;;;;;;;;;1041933;28;20110;-65
2024/01/16 00:18:19;;;;;;;1.40;1.30;;;;;;;;;;1042224;28;20395;-65
2024/01/16 00:18:50;;;;;;;3.58;1.40;;;;;;;;;;1041862;28;20469;-65
2024/01/16 00:19:20;;;;;;;1.70;1.60;;;;;;;;;;1042168;28;20481;-65
2024/01/16 00:19:51;;;;;;;1.88;1.33;;;;;;;;;;1041803;28;20045;-65
2024/01/16 00:20:23;;;;;;;1.70;1.30;;;;;;;;;;1042505;28;20485;-65
2024/01/16 00:20:53;;;;;;;1.77;1.20;;;;;;;;;;1042056;28;20051;-65
2024/01/16 00:21:24;;;;;;;1.80;1.48;;;;;;;;;;1041964;28;20139;-65
2024/01/16 00:21:55;;;;;;;1.95;1.52;;;;;;;;;;1041963;28;20052;-65
2024/01/16 00:22:25;;;;;;;1.80;1.10;;;;;;;;;;1042521;28;20506;-65
2024/01/16 00:22:56;;;;;;;1.92;1.35;;;;;;;;;;1041892;28;20120;-65
2024/01/16 00:23:26;;;;;;;2.58;1.48;;;;;;;;;;1041516;28;20053;-65
2024/01/16 00:23:57;;;;;;;1.50;1.40;;;;;;;;;;1041704;28;20079;-65
2024/01/16 00:24:27;;;;;;;2.13;1.42;;;;;;;;;;1042368;28;20049;-65
2024/01/16 00:24:59;;;;;;;1.90;1.75;;;;;;;;;;1041614;28;20127;-66
2024/01/16 00:25:29;;;;;;;1.48;1.38;;;;;;;;;;1041667;28;20056;-65
2024/01/16 00:26:00;;;;;;;3.88;1.67;;;;;;;;;;1042788;28;20080;-65
2024/01/16 00:26:30;;;;;;;7.30;1.65;;;;;;;;;;1041669;28;20052;-65
2024/01/16 00:27:01;;;;;;;4.00;1.42;;;;;;;;;;1042300;28;20747;-65
2024/01/16 00:27:31;;;;;;;1.45;1.30;;;;;;;;;;1041959;28;20052;-65
2024/01/16 00:28:02;;;;;;;1.25;1.15;;;;;;;;;;1042251;28;20703;-65
2024/01/16 00:28:33;;;;;;;1.80;1.50;;;;;;;;;;1041895;28;20485;-65
2024/01/16 00:29:03;;;;;;;1.50;1.40;;;;;;;;;;1042162;28;20095;-65
2024/01/16 00:29:34;;;;;;;1.55;1.45;;;;;;;;;;1041780;28;20477;-65
2024/01/16 00:30:06;;;;;;;2.13;1.30;;;;;;;;;;1042179;28;20056;-65
2024/01/16 00:30:37;;;;;;;2.03;1.40;;;;;;;;;;1041562;28;20071;-65
2024/01/16 00:31:08;;;;;;;1.98;1.50;;;;;;;;;;1042497;28;20048;-65
2024/01/16 00:31:39;;;;;;;1.60;1.30;;;;;;;;;;1041525;28;20484;-65
2024/01/16 00:32:10;;;;;;;1.73;1.48;;;;;;;;;;1042629;28;20098;-65
2024/01/16 00:32:40;;;;;;;5.03;2.10;;;;;;;;;;1041439;28;20114;-65
2024/01/16 00:33:12;;;;;;;1.40;1.30;;;;;;;;;;1041750;28;20644;-65
2024/01/16 00:33:42;;;;;;;2.47;1.48;;;;;;;;;;1041150;28;20087;-64
2024/01/16 00:34:14;;;;;;;1.95;1.42;;;;;;;;;;1042232;28;20111;-65
2024/01/16 00:34:44;;;;;;;2.38;1.60;;;;;;;;;;1041932;28;20550;-65
2024/01/16 00:35:15;;;;;;;1.67;1.58;;;;;;;;;;1042211;28;20067;-65
2024/01/16 00:35:45;;;;;;;2.55;1.48;;;;;;;;;;1041842;28;20075;-65
2024/01/16 00:36:16;;;;;;;1.90;1.20;;;;;;;;;;1042272;28;20060;-65
2024/01/16 00:36:46;;;;;;;1.85;1.45;;;;;;;;;;1042001;28;20053;-65
2024/01/16 00:37:17;;;;;;;2.28;1.60;;;;;;;;;;1042108;28;20569;-65
2024/01/16 00:37:47;;;;;;;2.53;1.20;;;;;;;;;;1040501;28;20056;-65
2024/01/16 00:38:18;;;;;;;1.52;1.40;;;;;;;;;;1041691;28;20053;-65
2024/01/16 00:38:48;;;;;;;4.00;1.70;;;;;;;;;;1041018;28;20152;-65
2024/01/16 00:39:19;;;;;;;2.75;1.80;;;;;;;;;;1042314;28;20052;-65
2024/01/16 00:39:50;;;;;;;3.70;1.58;;;;;;;;;;1041471;28;20053;-65
2024/01/16 00:40:20;;;;;;;1.52;1.40;;;;;;;;;;1042487;28;20051;-65
2024/01/16 00:40:50;;;;;;;1.75;1.50;;;;;;;;;;1041340;28;20191;-65
2024/01/16 00:41:21;;;;;;;3.25;1.80;;;;;;;;;;1042358;28;20036;-65
2024/01/16 00:41:51;;;;;;;1.00;1.00;;;;;;;;;;1041669;28;20720;-65
2024/01/16 00:42:22;;;;;;;1.92;1.58;;;;;;;;;;1041489;28;20048;-65
2024/01/16 00:42:53;;;;;;;1.63;1.52;;;;;;;;;;1041663;28;20128;-65
2024/01/16 00:43:23;;;;;;;2.95;1.60;;;;;;;;;;1041803;28;20679;-65
2024/01/16 00:43:54;;;;;;;2.60;1.75;;;;;;;;;;1041859;28;20036;-64
2024/01/16 00:44:24;;;;;;;2.20;1.70;;;;;;;;;;1042231;28;20397;-65
2024/01/16 00:44:55;;;;;;;1.48;1.30;;;;;;;;;;1041718;28;20642;-65
2024/01/16 00:45:25;;;;;;;3.67;1.60;;;;;;;;;;1042322;28;20091;-65
2024/01/16 00:45:55;;;;;;;2.13;1.48;;;;;;;;;;1041823;28;20095;-65
2024/01/16 00:46:26;;;;;;;6.95;2.65;;;;;;;;;;1041966;28;20037;-65
2024/01/16 00:46:57;;;;;;;3.08;1.80;;;;;;;;;;1042224;28;20053;-65
2024/01/16 00:47:27;;;;;;;1.40;1.30;;;;;;;;;;1041905;28;20091;-65
2024/01/16 00:47:58;;;;;;;5.90;1.40;;;;;;;;;;1041649;28;20053;-65
2024/01/16 00:48:29;;;;;;;2.45;1.48;;;;;;;;;;1041632;28;20041;-65
2024/01/16 00:48:59;;;;;;;1.67;1.40;;;;;;;;;;1040808;28;20064;-65
2024/01/16 00:49:30;;;;;;;3.85;1.67;;;;;;;;;;1041465;28;20044;-64
2024/01/16 00:50:02;;;;;;;2.47;1.45;;;;;;;;;;1042485;28;20057;-65
2024/01/16 00:50:33;;;;;;;1.77;1.52;;;;;;;;;;1041456;28;20394;-66
2024/01/16 00:51:03;;;;;;;1.77;1.48;;;;;;;;;;1042403;28;20045;-65
2024/01/16 00:51:34;;;;;;;1.13;1.05;;;;;;;;;;1041810;28;20070;-65
2024/01/16 00:52:05;;;;;;;2.88;1.80;;;;;;;;;;1042546;28;20496;-65
2024/01/16 00:52:35;;;;;;;1.95;1.30;;;;;;;;;;1041990;28;20794;-65
2024/01/16 00:53:06;;;;;;;2.75;1.58;;;;;;;;;;1042270;28;20617;-65
2024/01/16 00:53:41;;;;;;;2.15;1.23;;;;;;;;;;1041693;28;20077;-65
2024/01/16 00:54:11;;;;;;;4.03;1.63;;;;;;;;;;1040616;28;20053;-65
2024/01/16 00:54:43;;;;;;;4.05;1.20;;;;;;;;;;1041350;28;20136;-65
2024/01/16 00:55:13;;;;;;;1.67;1.58;;;;;;;;;;1042167;28;20061;-65
2024/01/16 00:55:44;;;;;;;3.08;1.50;;;;;;;;;;1041614;28;20053;-65
2024/01/16 00:56:14;;;;;;;2.20;1.20;;;;;;;;;;1042321;28;20107;-65
2024/01/16 00:56:45;;;;;;;3.38;1.45;;;;;;;;;;1039433;28;20046;-65
2024/01/16 00:57:18;;;;;;;1.35;1.25;;;;;;;;;;1041818;28;20053;-65
2024/01/16 00:57:49;;;;;;;1.80;1.23;;;;;;;;;;1041215;28;20060;-64
2024/01/16 00:58:21;;;;;;;5.43;1.40;;;;;;;;;;1042039;28;20072;-65
2024/01/16 00:58:53;;;;;;;1.85;1.48;;;;;;;;;;1041302;28;20057;-65
2024/01/16 00:59:24;;;;;;;3.17;1.50;;;;;;;;;;1042417;28;20098;-65
2024/01/16 00:59:54;;;;;;;2.53;1.33;;;;;;;;;;1041671;28;20057;-65
2024/01/16 01:00:25;;;;;;;3.20;1.60;;;;;;;;;;1042399;28;20532;-65
2024/01/16 01:00:55;;;;;;;1.58;1.27;;;;;;;;;;1041921;28;20052;-65
2024/01/16 01:01:26;;;;;;;3.90;1.70;;;;;;;;;;1042131;28;20049;-65
2024/01/16 01:01:56;;;;;;;1.60;1.27;;;;;;;;;;1042032;28;20080;-65
2024/01/16 01:02:27;;;;;;;1.52;1.40;;;;;;;;;;1041647;28;20045;-65
2024/01/16 01:02:58;;;;;;;1.88;1.40;;;;;;;;;;1042412;28;20056;-65
2024/01/16 01:03:29;;;;;;;1.30;1.20;;;;;;;;;;1042694;28;20409;-65
2024/01/16 01:03:59;;;;;;;2.00;1.52;;;;;;;;;;1043225;28;20413;-65
2024/01/16 01:04:32;;;;;;;1.95;1.38;;;;;;;;;;1042390;28;20045;-65
2024/01/16 01:05:03;;;;;;;2.17;1.20;;;;;;;;;;1043273;28;20439;-64
2024/01/16 01:05:34;;;;;;;4.25;1.30;;;;;;;;;;1041669;28;22044;-65
2024/01/16 01:06:04;;;;;;;1.63;1.52;;;;;;;;;;1043077;28;20208;-66
2024/01/16 01:06:35;;;;;;;2.10;1.70;;;;;;;;;;1042475;28;20139;-64
2024/01/16 01:07:05;;;;;;;2.45;1.63;;;;;;;;;;1042910;28;20132;-65
2024/01/16 01:07:36;;;;;;;3.88;1.30;;;;;;;;;;1042671;28;20049;-64
2024/01/16 01:08:07;;;;;;;3.20;1.90;;;;;;;;;;1043031;28;20049;-65
2024/01/16 01:08:38;;;;;;;4.35;1.23;;;;;;;;;;1042437;28;20086;-65
2024/01/16 01:09:11;;;;;;;1.20;1.10;;;;;;;;;;1042932;28;20501;-65
2024/01/16 01:09:42;;;;;;;2.78;1.30;;;;;;;;;;1041105;28;20038;-65
2024/01/16 01:10:12;;;;;;;1.75;1.60;;;;;;;;;;1043099;28;20106;-65
2024/01/16 01:10:43;;;;;;;1.52;1.40;;;;;;;;;;1042866;28;20049;-65
2024/01/16 01:11:13;;;;;;;1.95;1.55;;;;;;;;;;1042758;28;20436;-65
2024/01/16 01:11:44;;;;;;;2.47;1.40;;;;;;;;;;1042963;28;20084;-65
2024/01/16 01:12:15;;;;;;;1.15;1.13;;;;;;;;;;1042878;28;20057;-65
2024/01/16 01:12:45;;;;;;;1.40;1.30;;;;;;;;;;1042668;28;20053;-65
2024/01/16 01:13:16;;;;;;;2.00;1.30;;;;;;;;;;1043182;28;20822;-65
2024/01/16 01:13:46;;;;;;;2.22;1.40;;;;;;;;;;1041987;28;20045;-65
2024/01/16 01:14:16;;;;;;;1.83;1.50;;;;;;;;;;1043364;28;20053;-65
2024/01/16 01:14:47;;;;;;;2.25;1.63;;;;;;;;;;1042320;28;20045;-65
2024/01/16 01:15:18;;;;;;;3.53;1.58;;;;;;;;;;1043073;28;20045;-65
2024/01/16 01:15:48;;;;;;;2.15;1.27;;;;;;;;;;1041165;28;20571;-65
2024/01/16 01:16:19;;;;;;;1.63;1.33;;;;;;;;;;1042883;28;20065;-65
2024/01/16 01:16:49;;;;;;;3.53;1.20;;;;;;;;;;1042794;28;20060;-65
2024/01/16 01:17:20;;;;;;;2.40;1.40;;;;;;;;;;1043232;28;20061;-65
2024/01/16 01:17:51;;;;;;;1.40;1.30;;;;;;;;;;1042247;28;20053;-65
2024/01/16 01:18:22;;;;;;;1.70;1.60;;;;;;;;;;1043318;28;20044;-65
2024/01/16 01:18:53;;;;;;;1.50;1.38;;;;;;;;;;1042452;28;20094;-65
2024/01/16 01:19:23;;;;;;;2.22;1.80;;;;;;;;;;1042514;28;20115;-65
2024/01/16 01:19:54;;;;;;;2.85;1.55;;;;;;;;;;1042371;28;20072;-65
2024/01/16 01:20:25;;;;;;;2.15;1.90;;;;;;;;;;1043079;28;20056;-65
2024/01/16 01:20:56;;;;;;;2.58;1.25;;;;;;;;;;1042252;28;20049;-65
2024/01/16 01:21:26;;;;;;;4.30;1.85;;;;;;;;;;1043123;28;20076;-65
2024/01/16 01:21:57;;;;;;;3.05;1.33;;;;;;;;;;1042269;28;20045;-65
2024/01/16 01:22:28;;;;;;;1.95;1.70;;;;;;;;;;1043326;28;20071;-64
2024/01/16 01:22:59;;;;;;;2.30;1.42;;;;;;;;;;1042385;28;20068;-65
2024/01/16 01:23:30;;;;;;;3.00;1.50;;;;;;;;;;1040951;28;20056;-65
2024/01/16 01:24:01;;;;;;;2.10;1.50;;;;;;;;;;1038725;28;20049;-65
2024/01/16 01:24:31;;;;;;;3.35;1.55;;;;;;;;;;1039055;28;20073;-65
2024/01/16 01:25:02;;;;;;;1.63;1.52;;;;;;;;;;1043284;28;20401;-65
2024/01/16 01:25:33;;;;;;;1.63;1.40;;;;;;;;;;1041390;28;20697;-65
2024/01/16 01:26:04;;;;;;;2.33;1.23;;;;;;;;;;1039225;28;20116;-65
2024/01/16 01:26:35;;;;;;;1.77;1.67;;;;;;;;;;1039212;28;20103;-65
2024/01/16 01:27:06;;;;;;;1.95;1.85;;;;;;;;;;1043319;28;20076;-65
2024/01/16 01:27:37;;;;;;;2.72;1.50;;;;;;;;;;1042494;28;20417;-65
2024/01/16 01:28:07;;;;;;;2.90;1.63;;;;;;;;;;1042569;28;20083;-65
2024/01/16 01:28:40;;;;;;;2.00;1.50;;;;;;;;;;1042553;28;20052;-65
2024/01/16 01:29:10;;;;;;;2.15;1.50;;;;;;;;;;1042266;28;20139;-65
2024/01/16 01:29:41;;;;;;;2.00;1.42;;;;;;;;;;1042702;28;20045;-65
2024/01/16 01:30:11;;;;;;;1.85;1.27;;;;;;;;;;1042602;28;20055;-65
2024/01/16 01:30:42;;;;;;;1.60;1.50;;;;;;;;;;1042643;28;20124;-65
2024/01/16 01:31:13;;;;;;;1.20;1.20;;;;;;;;;;1042185;28;20483;-65
2024/01/16 01:31:47;;;;;;;1.55;1.40;;;;;;;;;;1042336;28;20045;-65
2024/01/16 01:32:17;;;;;;;1.95;1.23;;;;;;;;;;1042376;28;20059;-65
2024/01/16 01:32:48;;;;;;;3.13;1.65;;;;;;;;;;1042821;28;20083;-65
2024/01/16 01:33:19;;;;;;;1.98;1.80;;;;;;;;;;1042331;28;20037;-65
2024/01/16 01:33:49;;;;;;;2.72;1.25;;;;;;;;;;1042464;28;20053;-65
2024/01/16 01:34:20;;;;;;;2.08;1.63;;;;;;;;;;1042690;28;20059;-65
2024/01/16 01:34:50;;;;;;;2.72;1.30;;;;;;;;;;1041965;28;20099;-65
2024/01/16 01:35:21;;;;;;;1.50;1.40;;;;;;;;;;1043529;28;20131;-65
2024/01/16 01:35:51;;;;;;;1.77;1.50;;;;;;;;;;1042163;28;20781;-65
2024/01/16 01:36:22;;;;;;;1.80;1.60;;;;;;;;;;1043536;28;20141;-65
2024/01/16 01:36:53;;;;;;;2.83;1.50;;;;;;;;;;1042196;28;20408;-65
2024/01/16 01:37:23;;;;;;;2.35;1.60;;;;;;;;;;1043488;28;20040;-65
2024/01/16 01:37:53;;;;;;;3.90;1.60;;;;;;;;;;1041894;28;20045;-65
2024/01/16 01:38:24;;;;;;;2.67;1.77;;;;;;;;;;1043103;28;20053;-66
2024/01/16 01:38:54;;;;;;;2.67;1.35;;;;;;;;;;1042206;28;20076;-65
2024/01/16 01:39:25;;;;;;;1.92;1.25;;;;;;;;;;1042746;28;20049;-65
2024/01/16 01:39:56;;;;;;;3.10;1.30;;;;;;;;;;1039282;28;21107;-64
2024/01/16 01:40:26;;;;;;;1.95;1.20;;;;;;;;;;1038245;28;20069;-65
2024/01/16 01:40:57;;;;;;;2.20;1.33;;;;;;;;;;1041725;28;20441;-65
2024/01/16 01:41:28;;;;;;;1.40;1.30;;;;;;;;;;1042704;28;20493;-65
2024/01/16 01:41:58;;;;;;;1.90;1.35;;;;;;;;;;1043067;28;20072;-65
2024/01/16 01:42:29;;;;;;;1.98;1.63;;;;;;;;;;1042717;28;20478;-65
2024/01/16 01:43:20;;;;;;;1.70;1.40;;;;;;;;;;1042463;28;20500;-65
2024/01/16 01:43:50;;;;;;;1.35;1.35;;;;;;;;;;1040979;28;20107;-64
2024/01/16 01:44:21;;;;;;;1.95;1.27;;;;;;;;;;1043192;28;20153;-65
2024/01/16 01:44:52;;;;;;;1.40;1.30;;;;;;;;;;1042874;28;20131;-65
2024/01/16 01:45:22;;;;;;;1.20;1.10;;;;;;;;;;1042573;28;20370;-65
2024/01/16 01:46:11;;;;;;;1.38;1.27;;;;;;;;;;1042838;28;20797;-65
2024/01/16 01:46:42;;;;;;;2.20;1.08;;;;;;;;;;1041809;28;20098;-65
2024/01/16 01:47:13;;;;;;;1.67;1.08;;;;;;;;;;1043072;28;20111;-65
2024/01/16 01:47:43;;;;;;;1.50;1.40;;;;;;;;;;1041843;28;20045;-65
2024/01/16 01:48:14;;;;;;;1.67;1.30;;;;;;;;;;1043463;28;20099;-65
2024/01/16 01:48:48;;;;;;;2.35;1.48;;;;;;;;;;1041551;28;20113;-65
2024/01/16 01:49:18;;;;;;;1.58;1.48;;;;;;;;;;1043008;28;20408;-65
2024/01/16 01:49:49;;;;;;;1.60;1.40;;;;;;;;;;1042266;28;20440;-65
2024/01/16 01:50:19;;;;;;;1.70;1.60;;;;;;;;;;1042974;28;20125;-65
2024/01/16 01:50:50;;;;;;;1.55;1.45;;;;;;;;;;1042041;28;20057;-65
2024/01/16 01:51:21;;;;;;;2.58;1.40;;;;;;;;;;1043355;28;20053;-64
2024/01/16 01:51:52;;;;;;;2.00;1.60;;;;;;;;;;1042060;28;20052;-65
2024/01/16 01:52:23;;;;;;;1.75;1.42;;;;;;;;;;1043381;28;20045;-65
2024/01/16 01:52:54;;;;;;;1.85;1.40;;;;;;;;;;1042439;28;20056;-65
2024/01/16 01:53:24;;;;;;;2.80;1.67;;;;;;;;;;1042436;28;20037;-65
2024/01/16 01:53:55;;;;;;;2.53;1.60;;;;;;;;;;1042835;28;20049;-65
2024/01/16 01:54:27;;;;;;;1.90;1.55;;;;;;;;;;1042587;28;20052;-65
2024/01/16 01:54:58;;;;;;;2.47;1.48;;;;;;;;;;1042579;28;20640;-65
2024/01/16 01:55:29;;;;;;;1.40;1.30;;;;;;;;;;1041090;28;20558;-65
2024/01/16 01:56:04;;;;;;;1.55;1.45;;;;;;;;;;1043233;28;20067;-65
2024/01/16 01:56:35;;;;;;;1.70;1.60;;;;;;;;;;1042059;28;20045;-65
2024/01/16 01:57:08;;;;;;;2.20;1.50;;;;;;;;;;1043312;28;20139;-65
2024/01/16 01:57:39;;;;;;;6.57;1.50;;;;;;;;;;1042308;28;20049;-65
2024/01/16 01:58:10;;;;;;;1.92;1.70;;;;;;;;;;1042294;28;20049;-65
2024/01/16 01:58:43;;;;;;;1.58;1.48;;;;;;;;;;1042803;28;20048;-65
2024/01/16 01:59:15;;;;;;;2.85;1.85;;;;;;;;;;1041364;28;20095;-65
2024/01/16 01:59:46;;;;;;;2.10;1.70;;;;;;;;;;1042416;28;20057;-65
2024/01/16 02:00:18;;;;;;;3.13;1.30;;;;;;;;;;1042661;28;20473;-65
2024/01/16 02:00:50;;;;;;;2.58;1.77;;;;;;;;;;1042679;28;20664;-65
2024/01/16 02:01:22;;;;;;;2.45;1.33;;;;;;;;;;1042615;28;20441;-65
2024/01/16 02:01:53;;;;;;;1.92;1.63;;;;;;;;;;1042560;28;20057;-65
2024/01/16 02:02:24;;;;;;;2.17;2.03;;;;;;;;;;1043125;28;20106;-65
2024/01/16 02:02:55;;;;;;;5.60;1.83;;;;;;;;;;1042075;28;20052;-65
2024/01/16 02:03:29;;;;;;;3.97;1.80;;;;;;;;;;1042914;28;20053;-65
2024/01/16 02:04:01;;;;;;;2.15;1.58;;;;;;;;;;1042338;28;20052;-65
2024/01/16 02:04:32;;;;;;;1.80;1.70;;;;;;;;;;1042683;28;20053;-65
2024/01/16 02:05:03;;;;;;;2.20;1.35;;;;;;;;;;1042417;28;20690;-65
2024/01/16 02:05:34;;;;;;;2.85;1.50;;;;;;;;;;1042394;28;20501;-65
2024/01/16 02:06:05;;;;;;;2.13;1.35;;;;;;;;;;1042694;28;20045;-65
2024/01/16 02:06:35;;;;;;;1.85;1.75;;;;;;;;;;1042456;28;20056;-65
2024/01/16 02:07:07;;;;;;;4.03;1.80;;;;;;;;;;1042733;28;20880;-65
2024/01/16 02:07:38;;;;;;;2.47;1.60;;;;;;;;;;1042384;28;20045;-65
2024/01/16 02:08:09;;;;;;;1.60;1.50;;;;;;;;;;1043224;28;20075;-65
2024/01/16 02:08:40;;;;;;;2.58;1.65;;;;;;;;;;1042301;28;20045;-65
2024/01/16 02:09:13;;;;;;;3.35;1.45;;;;;;;;;;1042789;28;20063;-65
2024/01/16 02:09:43;;;;;;;3.30;1.60;;;;;;;;;;1041882;28;20048;-65
2024/01/16 02:10:14;;;;;;;2.33;1.63;;;;;;;;;;1041244;28;20050;-65
2024/01/16 02:10:47;;;;;;;1.63;1.50;;;;;;;;;;1042010;28;20378;-65
2024/01/16 02:11:18;;;;;;;1.55;1.45;;;;;;;;;;1042993;28;20049;-64
2024/01/16 02:11:48;;;;;;;2.13;1.48;;;;;;;;;;1042155;28;20057;-65
2024/01/16 02:12:19;;;;;;;1.98;1.60;;;;;;;;;;1042985;28;20119;-65
2024/01/16 02:12:49;;;;;;;1.58;1.48;;;;;;;;;;1042092;28;20539;-65
2024/01/16 02:13:23;;;;;;;5.13;1.65;;;;;;;;;;1042515;28;20143;-65
2024/01/16 02:13:53;;;;;;;2.28;1.60;;;;;;;;;;1042096;28;20122;-65
2024/01/16 02:14:24;;;;;;;2.10;1.63;;;;;;;;;;1042327;28;20563;-65
2024/01/16 02:14:54;;;;;;;2.67;1.67;;;;;;;;;;1042766;28;20053;-65
2024/01/16 02:15:25;;;;;;;3.95;1.70;;;;;;;;;;1042335;28;20045;-65
2024/01/16 02:15:55;;;;;;;2.13;1.35;;;;;;;;;;1042485;28;20056;-65
2024/01/16 02:16:26;;;;;;;4.68;1.80;;;;;;;;;;1042545;28;20438;-65
2024/01/16 02:16:56;;;;;;;1.92;1.45;;;;;;;;;;1042719;28;20044;-64
2024/01/16 02:17:27;;;;;;;1.92;1.38;;;;;;;;;;1043326;28;20063;-64
2024/01/16 02:17:57;;;;;;;2.65;1.50;;;;;;;;;;1041876;28;20041;-65
2024/01/16 02:18:28;;;;;;;1.85;1.73;;;;;;;;;;1043331;28;20049;-65
2024/01/16 02:18:58;;;;;;;1.40;1.30;;;;;;;;;;1041721;28;20048;-65
2024/01/16 02:19:29;;;;;;;1.40;1.30;;;;;;;;;;1043044;28;20067;-66
2024/01/16 02:19:59;;;;;;;4.65;1.60;;;;;;;;;;1042310;28;20045;-65
2024/01/16 02:20:31;;;;;;;1.83;1.67;;;;;;;;;;1042745;28;20444;-65
2024/01/16 02:21:05;;;;;;;1.48;1.38;;;;;;;;;;1042545;28;20547;-65
2024/01/16 02:21:43;;;;;;;1.83;1.50;;;;;;;;;;1041526;28;20067;-65
2024/01/16 02:22:18;;;;;;;1.85;1.50;;;;;;;;;;1042784;28;20524;-65
2024/01/16 02:22:52;;;;;;;1.67;1.27;;;;;;;;;;1042335;28;20075;-64
2024/01/16 02:23:29;;;;;;;3.38;1.80;;;;;;;;;;1043143;28;20128;-64
2024/01/16 02:24:00;;;;;;;1.83;1.73;;;;;;;;;;1041527;28;20064;-65
2024/01/16 02:24:30;;;;;;;2.63;1.52;;;;;;;;;;1041984;28;20052;-65
2024/01/16 02:25:01;;;;;;;2.75;1.75;;;;;;;;;;1038084;28;20128;-65
2024/01/16 02:25:32;;;;;;;4.20;2.13;;;;;;;;;;1038669;28;20113;-65
2024/01/16 02:26:03;;;;;;;2.28;1.70;;;;;;;;;;1038637;28;20041;-65
2024/01/16 02:26:33;;;;;;;2.30;1.90;;;;;;;;;;1037487;28;20053;-65
2024/01/16 02:27:04;;;;;;;2.78;1.45;;;;;;;;;;1038959;28;20560;-65
2024/01/16 02:27:35;;;;;;;1.60;1.48;;;;;;;;;;1037519;28;20120;-65
2024/01/16 02:28:05;;;;;;;2.53;1.63;;;;;;;;;;1038431;28;20049;-65
2024/01/16 02:28:36;;;;;;;1.67;1.35;;;;;;;;;;1037546;28;20062;-64
2024/01/16 02:29:06;;;;;;;3.38;1.67;;;;;;;;;;1038268;28;20060;-65
2024/01/16 02:29:44;;;;;;;2.92;1.80;;;;;;;;;;1038586;28;20056;-64
2024/01/16 02:30:15;;;;;;;6.00;1.50;;;;;;;;;;1038992;28;20139;-65
2024/01/16 02:30:46;;;;;;;1.45;1.02;;;;;;;;;;1037779;28;20045;-64
2024/01/16 02:31:17;;;;;;;2.50;1.75;;;;;;;;;;1038671;28;20139;-65
2024/01/16 02:31:47;;;;;;;2.33;1.52;;;;;;;;;;1038573;28;20053;-65
2024/01/16 02:32:18;;;;;;;2.10;1.30;;;;;;;;;;1038367;28;20086;-65
2024/01/16 02:32:48;;;;;;;1.88;1.40;;;;;;;;;;1038321;28;20398;-64
2024/01/16 02:33:19;;;;;;;2.55;1.30;;;;;;;;;;1038555;28;20076;-65
2024/01/16 02:33:49;;;;;;;1.35;1.25;;;;;;;;;;1038227;28;20481;-65
2024/01/16 02:34:20;;;;;;;3.25;1.50;;;;;;;;;;1038499;28;20054;-65
2024/01/16 02:34:50;;;;;;;1.95;1.83;;;;;;;;;;1038356;28;20045;-65
2024/01/16 02:35:21;;;;;;;2.13;1.90;;;;;;;;;;1038611;28;20061;-65
2024/01/16 02:35:52;;;;;;;2.63;1.35;;;;;;;;;;1041433;28;20079;-65
2024/01/16 02:36:22;;;;;;;2.58;1.38;;;;;;;;;;1042971;28;20047;-64
2024/01/16 02:36:53;;;;;;;2.80;1.52;;;;;;;;;;1038326;28;20119;-65
2024/01/16 02:37:24;;;;;;;2.00;1.58;;;;;;;;;;1039014;28;20497;-65
2024/01/16 02:37:55;;;;;;;2.47;1.63;;;;;;;;;;1041698;28;20481;-65
2024/01/16 02:38:25;;;;;;;0.90;0.90;;;;;;;;;;1042739;28;20037;-65
2024/01/16 02:38:56;;;;;;;1.73;1.52;;;;;;;;;;1041664;28;20111;-65
2024/01/16 02:39:26;;;;;;;1.23;1.08;;;;;;;;;;1043055;28;20053;-64
2024/01/16 02:39:58;;;;;;;1.98;1.35;;;;;;;;;;1041376;28;20098;-65
2024/01/16 02:40:28;;;;;;;3.53;1.25;;;;;;;;;;1042847;28;20045;-64
2024/01/16 02:40:59;;;;;;;8.55;1.58;;;;;;;;;;1042102;28;20140;-64
2024/01/16 02:41:29;;;;;;;1.30;1.20;;;;;;;;;;1041558;28;20045;-65
2024/01/16 02:42:00;;;;;;;3.20;1.50;;;;;;;;;;1039049;28;20053;-65
2024/01/16 02:42:31;;;;;;;1.88;1.30;;;;;;;;;;1038202;28;20548;-65
2024/01/16 02:43:01;;;;;;;1.30;1.20;;;;;;;;;;1038776;28;20103;-64
2024/01/16 02:43:32;;;;;;;1.52;1.42;;;;;;;;;;1038164;28;20045;-65
2024/01/16 02:44:03;;;;;;;3.10;1.75;;;;;;;;;;1038773;28;20099;-65
2024/01/16 02:44:33;;;;;;;2.25;1.33;;;;;;;;;;1038130;28;20042;-65
2024/01/16 02:45:05;;;;;;;2.95;1.40;;;;;;;;;;1038587;28;20360;-65
2024/01/16 02:45:35;;;;;;;1.92;1.30;;;;;;;;;;1037963;28;20053;-65
2024/01/16 02:46:06;;;;;;;1.08;0.98;;;;;;;;;;1038311;28;20056;-65
2024/01/16 02:46:38;;;;;;;1.10;1.10;;;;;;;;;;1037660;28;20513;-65
2024/01/16 02:47:09;;;;;;;1.50;1.15;;;;;;;;;;1038500;28;20049;-65
2024/01/16 02:47:40;;;;;;;1.88;1.35;;;;;;;;;;1039468;28;20045;-64
2024/01/16 02:48:11;;;;;;;2.33;1.40;;;;;;;;;;1042716;28;20049;-65
2024/01/16 02:48:44;;;;;;;2.05;1.48;;;;;;;;;;1042317;28;20570;-65
2024/01/16 02:49:15;;;;;;;1.33;1.23;;;;;;;;;;1040912;28;20063;-64
2024/01/16 02:49:46;;;;;;;2.30;1.30;;;;;;;;;;1042016;28;20049;-65
2024/01/16 02:50:17;;;;;;;2.20;1.70;;;;;;;;;;1043522;28;20041;-64
2024/01/16 02:50:48;;;;;;;1.60;1.23;;;;;;;;;;1041865;28;20049;-64
2024/01/16 02:51:18;;;;;;;2.03;1.30;;;;;;;;;;1042735;28;20091;-65
2024/01/16 02:51:48;;;;;;;1.52;1.42;;;;;;;;;;1042405;28;20175;-64
2024/01/16 02:52:19;;;;;;;1.23;1.13;;;;;;;;;;1042553;28;20045;-65
2024/01/16 02:52:50;;;;;;;2.25;1.45;;;;;;;;;;1042530;28;20557;-65
2024/01/16 02:53:20;;;;;;;2.33;1.58;;;;;;;;;;1042757;28;20044;-65
2024/01/16 02:53:51;;;;;;;0.95;0.90;;;;;;;;;;1042117;28;20103;-64
2024/01/16 02:54:22;;;;;;;2.28;1.20;;;;;;;;;;1043034;28;20060;-64
2024/01/16 02:54:52;;;;;;;1.40;1.30;;;;;;;;;;1042203;28;20049;-65
2024/01/16 02:55:23;;;;;;;1.30;1.20;;;;;;;;;;1042586;28;20045;-64
2024/01/16 02:55:54;;;;;;;3.28;1.40;;;;;;;;;;1042360;28;20449;-65
2024/01/16 02:56:24;;;;;;;3.08;1.38;;;;;;;;;;1042531;28;20102;-64
2024/01/16 02:56:55;;;;;;;1.98;1.23;;;;;;;;;;1042317;28;20060;-65
2024/01/16 02:57:25;;;;;;;2.75;1.23;;;;;;;;;;1042913;28;20056;-65
2024/01/16 02:57:56;;;;;;;1.40;1.30;;;;;;;;;;1041804;28;20049;-65
2024/01/16 02:58:27;;;;;;;2.10;1.67;;;;;;;;;;1043043;28;20111;-64
2024/01/16 02:58:58;;;;;;;2.40;1.30;;;;;;;;;;1042278;28;20048;-64
2024/01/16 02:59:30;;;;;;;1.33;1.20;;;;;;;;;;1042714;28;20049;-65
2024/01/16 03:00:01;;;;;;;1.50;1.20;;;;;;;;;;1042454;28;20190;-65
2024/01/16 03:00:32;;;;;;;1.38;1.27;;;;;;;;;;1042113;28;20044;-64
2024/01/16 03:01:03;;;;;;;3.22;1.60;;;;;;;;;;1042956;28;21949;-64
2024/01/16 03:01:33;;;;;;;1.42;1.25;;;;;;;;;;1042258;28;20402;-65
2024/01/16 03:02:04;;;;;;;1.65;1.40;;;;;;;;;;1042594;28;20410;-64
2024/01/16 03:02:34;;;;;;;2.13;1.60;;;;;;;;;;1042312;28;20055;-65
2024/01/16 03:03:05;;;;;;;1.63;1.17;;;;;;;;;;1042398;28;20052;-64
2024/01/16 03:03:35;;;;;;;1.90;1.65;;;;;;;;;;1042660;28;20052;-65
2024/01/16 03:04:06;;;;;;;1.42;1.30;;;;;;;;;;1042334;28;20045;-65
2024/01/16 03:04:37;;;;;;;1.83;1.08;;;;;;;;;;1042363;28;20445;-65
2024/01/16 03:05:07;;;;;;;1.60;1.50;;;;;;;;;;1041042;28;20056;-65
2024/01/16 03:05:38;;;;;;;1.48;1.38;;;;;;;;;;1042201;28;20045;-66
2024/01/16 03:06:09;;;;;;;2.22;1.40;;;;;;;;;;1042543;28;20152;-65
2024/01/16 03:06:40;;;;;;;2.65;1.35;;;;;;;;;;1042336;28;20048;-65